createdAt,value
2022-11-16T00:01:37.122Z,99913.38
2022-11-16T00:04:21.337Z,99875.13
2022-11-16T00:07:07.599Z,99863.13
2022-11-16T00:09:51.778Z,99919.00
2022-11-16T00:12:36.003Z,99910.09
2022-11-16T00:15:19.964Z,99867.94
2022-11-16T00:18:04.065Z,99877.44
2022-11-16T00:20:48.046Z,99871.13
2022-11-16T00:23:34.027Z,99906.69
2022-11-16T00:26:18.325Z,99903.63
2022-11-16T00:29:02.405Z,99891.19
2022-11-16T00:31:47.052Z,99890.72
2022-11-16T00:34:30.945Z,99850.44
2022-11-16T00:37:15.064Z,99873.25
2022-11-16T00:40:00.574Z,99877.66
2022-11-16T00:42:44.958Z,99848.78
2022-11-16T00:45:29.028Z,99891.56
2022-11-16T00:48:13.712Z,99884.25
2022-11-16T00:50:57.828Z,99883.50
2022-11-16T00:53:42.011Z,99872.97
2022-11-16T00:56:27.495Z,99879.56
2022-11-16T00:59:11.678Z,99870.50
2022-11-16T01:01:55.736Z,99827.44
2022-11-16T01:04:39.873Z,99825.19
2022-11-16T01:07:23.904Z,99828.78
2022-11-16T01:10:10.973Z,99824.22
2022-11-16T01:12:55.958Z,99820.31
2022-11-16T01:15:39.948Z,99815.28
2022-11-16T01:18:23.949Z,99808.22
2022-11-16T01:21:08.874Z,99849.69
2022-11-16T01:23:54.268Z,99838.91
2022-11-16T01:26:38.300Z,99808.59
2022-11-16T01:29:24.106Z,99838.44
2022-11-16T01:32:11.774Z,99792.00
2022-11-16T01:34:55.691Z,99827.34
2022-11-16T01:37:43.992Z,99824.06
2022-11-16T01:40:29.375Z,99789.88
2022-11-16T01:43:18.572Z,99823.53
2022-11-16T01:46:05.222Z,99820.13
2022-11-16T01:48:54.510Z,99816.53
2022-11-16T01:51:41.199Z,99814.63
2022-11-16T01:54:25.867Z,99765.34
2022-11-16T01:57:17.666Z,99768.28
2022-11-16T02:00:12.901Z,99800.94
2022-11-16T02:03:01.010Z,99716.75
2022-11-16T02:06:29.579Z,99748.69
2022-11-16T02:09:55.859Z,99806.66
2022-11-16T02:13:12.614Z,99758.19
2022-11-16T02:16:13.766Z,99796.97
2022-11-16T02:19:15.860Z,99764.25
2022-11-16T02:22:09.282Z,99782.97
2022-11-16T02:25:04.347Z,99798.59
2022-11-16T02:28:21.845Z,99747.38
2022-11-16T02:31:10.980Z,99741.13
2022-11-16T02:33:58.451Z,99734.56
2022-11-16T02:36:45.365Z,99763.03
2022-11-16T02:39:32.376Z,99756.63
2022-11-16T02:42:21.611Z,99755.91
2022-11-16T02:45:10.142Z,99750.59
2022-11-16T02:47:59.472Z,99714.31
2022-11-16T02:50:44.783Z,99758.84
2022-11-16T02:53:29.281Z,99752.13
2022-11-16T02:56:16.837Z,99716.19
2022-11-16T02:59:01.477Z,99711.38
2022-11-16T03:01:53.512Z,99749.63
2022-11-16T03:04:44.126Z,99746.75
2022-11-16T03:07:34.521Z,99740.69
2022-11-16T03:10:35.358Z,99694.91
2022-11-16T03:13:23.652Z,99720.78
2022-11-16T03:16:14.749Z,99684.78
2022-11-16T03:19:03.784Z,99717.59
2022-11-16T03:21:53.508Z,99688.03
2022-11-16T03:24:37.978Z,99721.09
2022-11-16T03:27:30.462Z,99728.09
2022-11-16T03:30:22.325Z,99728.91
2022-11-16T03:33:15.999Z,99725.69
2022-11-16T03:36:12.024Z,99685.97
2022-11-16T03:39:00.599Z,99671.94
2022-11-16T03:41:50.086Z,99682.75
2022-11-16T03:44:36.745Z,99687.72
2022-11-16T03:47:22.740Z,99701.72
2022-11-16T03:50:08.023Z,99704.38
2022-11-16T03:52:51.988Z,99702.41
2022-11-16T03:55:37.523Z,99693.84
2022-11-16T03:58:21.426Z,99686.94
2022-11-16T04:01:06.108Z,99686.25
2022-11-16T04:03:50.436Z,99686.88
2022-11-16T04:06:53.203Z,99687.69
2022-11-16T04:09:54.576Z,99676.06
2022-11-16T04:12:59.180Z,99682.75
2022-11-16T04:16:00.597Z,99672.63
2022-11-16T04:19:02.087Z,99673.53
2022-11-16T04:22:08.196Z,99674.09
2022-11-16T04:25:00.662Z,99672.38
2022-11-16T04:28:03.149Z,99659.81
2022-11-16T04:31:09.568Z,99643.38
2022-11-16T04:34:13.585Z,99681.81
2022-11-16T04:37:20.303Z,99665.72
2022-11-16T04:40:05.978Z,99673.50
2022-11-16T04:42:54.763Z,99673.03
2022-11-16T04:45:56.798Z,99674.25
2022-11-16T04:48:46.049Z,99636.75
2022-11-16T04:51:29.926Z,99663.53
2022-11-16T04:54:15.062Z,99659.66
2022-11-16T04:56:59.255Z,99663.47
2022-11-16T04:59:44.433Z,99657.31
2022-11-16T05:02:29.022Z,99657.09
2022-11-16T05:05:15.655Z,99669.16
2022-11-16T05:08:01.109Z,99657.31
2022-11-16T05:10:52.105Z,99658.34
2022-11-16T05:13:36.648Z,99646.47
2022-11-16T05:16:22.437Z,99654.53
2022-11-16T05:19:24.468Z,99653.31
2022-11-16T05:22:08.375Z,99611.44
2022-11-16T05:24:52.319Z,99641.19
2022-11-16T05:27:36.432Z,99637.91
2022-11-16T05:30:20.522Z,99632.41
2022-11-16T05:33:05.905Z,99647.09
2022-11-16T05:35:54.569Z,99642.56
2022-11-16T05:38:38.955Z,99632.63
2022-11-16T05:41:22.853Z,99637.44
2022-11-16T05:44:07.591Z,99645.13
2022-11-16T05:46:51.817Z,99651.47
2022-11-16T05:49:37.525Z,99647.16
2022-11-16T05:52:21.663Z,99640.81
2022-11-16T05:55:06.263Z,99587.47
2022-11-16T05:57:56.236Z,99635.72
2022-11-16T06:00:40.098Z,99610.91
2022-11-16T06:03:29.020Z,99622.03
2022-11-16T06:06:17.666Z,99634.72
2022-11-16T06:09:01.853Z,99631.41
2022-11-16T06:11:47.746Z,99639.28
2022-11-16T06:14:31.872Z,99619.28
2022-11-16T06:17:16.633Z,99614.19
2022-11-16T06:20:02.140Z,99619.19
2022-11-16T06:22:48.579Z,99612.53
2022-11-16T06:25:33.083Z,99612.56
2022-11-16T06:28:17.096Z,99569.38
2022-11-16T06:31:01.315Z,99562.38
2022-11-16T06:33:48.718Z,99601.16
2022-11-16T06:36:37.766Z,99559.13
2022-11-16T06:39:23.161Z,99547.47
2022-11-16T06:42:07.818Z,99603.84
2022-11-16T06:44:52.053Z,99587.78
2022-11-16T06:47:41.050Z,99588.41
2022-11-16T06:50:25.332Z,99541.13
2022-11-16T06:53:10.007Z,99548.19
2022-11-16T06:55:55.734Z,99580.78
2022-11-16T06:58:42.586Z,99577.19
2022-11-16T07:01:27.847Z,99564.41
2022-11-16T07:04:18.621Z,99574.38
2022-11-16T07:07:08.626Z,99561.06
2022-11-16T07:09:54.469Z,99478.41
2022-11-16T07:12:40.074Z,99545.66
2022-11-16T07:15:24.692Z,99557.00
2022-11-16T07:18:09.078Z,99549.59
2022-11-16T07:20:55.497Z,99560.38
2022-11-16T07:23:39.518Z,99558.13
2022-11-16T07:26:25.989Z,99565.28
2022-11-16T07:29:16.430Z,99571.56
2022-11-16T07:32:19.278Z,99545.97
2022-11-16T07:35:23.148Z,99559.56
2022-11-16T07:38:07.670Z,99550.56
2022-11-16T07:40:51.587Z,99543.94
2022-11-16T07:43:38.186Z,99542.75
2022-11-16T07:46:50.009Z,99545.13
2022-11-16T07:49:34.253Z,99548.81
2022-11-16T07:52:26.075Z,99532.91
2022-11-16T07:55:14.036Z,99539.34
2022-11-16T07:57:59.208Z,99536.06
2022-11-16T08:00:43.468Z,99526.78
2022-11-16T08:03:33.421Z,99512.69
2022-11-16T08:06:19.443Z,99530.50
2022-11-16T08:09:04.085Z,99519.44
2022-11-16T08:11:51.499Z,99528.41
2022-11-16T08:14:35.794Z,99508.63
2022-11-16T08:17:20.078Z,99446.28
2022-11-16T08:20:06.658Z,99535.00
2022-11-16T08:22:51.744Z,99528.84
2022-11-16T08:25:36.068Z,99536.69
2022-11-16T08:28:20.427Z,99487.91
2022-11-16T08:31:09.237Z,99514.00
2022-11-16T08:33:54.603Z,99512.13
2022-11-16T08:36:40.190Z,99478.91
2022-11-16T08:39:25.295Z,99520.22
2022-11-16T08:42:09.410Z,99464.94
2022-11-16T08:44:54.522Z,99469.59
2022-11-16T08:47:38.646Z,99515.47
2022-11-16T08:50:24.678Z,99508.81
2022-11-16T08:53:10.827Z,99516.31
2022-11-16T08:55:54.920Z,99514.91
2022-11-16T08:58:40.201Z,99506.25
2022-11-16T09:01:27.579Z,99506.72
2022-11-16T09:04:12.038Z,99498.44
2022-11-16T09:06:56.288Z,99502.47
2022-11-16T09:09:41.778Z,99503.56
2022-11-16T09:15:28.123Z,99491.22
2022-11-16T09:18:11.845Z,99484.38
2022-11-16T09:20:55.801Z,99470.31
2022-11-16T09:23:39.577Z,99463.47
2022-11-16T09:26:25.510Z,99462.78
2022-11-16T09:29:13.973Z,99449.38
2022-11-16T09:31:58.453Z,99453.50
2022-11-16T09:34:42.166Z,99424.91
2022-11-16T09:37:26.028Z,99409.75
2022-11-16T09:40:12.565Z,99435.41
2022-11-16T09:43:05.765Z,99441.19
2022-11-16T09:45:57.462Z,99445.56
2022-11-16T09:48:42.692Z,99433.53
2022-11-16T09:51:29.349Z,99429.22
2022-11-16T09:54:19.353Z,99421.00
2022-11-16T09:57:12.185Z,99423.31
2022-11-16T10:00:02.251Z,99408.34
2022-11-16T10:03:03.763Z,99398.41
2022-11-16T10:05:54.589Z,99397.97
2022-11-16T10:08:44.520Z,99386.16
2022-11-16T10:11:45.520Z,99387.72
2022-11-16T10:15:01.526Z,99386.66
2022-11-16T10:18:03.356Z,99364.22
2022-11-16T10:21:13.898Z,99377.72
2022-11-16T10:24:33.610Z,99366.00
2022-11-16T10:27:47.587Z,99366.91
2022-11-16T10:30:37.031Z,99352.53
2022-11-16T10:33:26.748Z,99322.09
2022-11-16T10:36:14.765Z,99338.34
2022-11-16T10:39:00.856Z,99332.75
2022-11-16T10:41:47.772Z,99348.19
2022-11-16T10:44:37.753Z,99309.44
2022-11-16T10:47:33.429Z,99297.06
2022-11-16T10:50:32.718Z,99296.09
2022-11-16T10:53:26.750Z,99299.09
2022-11-16T10:56:22.136Z,99332.47
2022-11-16T10:59:07.381Z,99326.25
2022-11-16T11:01:53.299Z,99324.53
2022-11-16T11:04:39.172Z,99318.66
2022-11-16T11:07:31.047Z,99314.91
2022-11-16T11:10:29.715Z,99311.19
2022-11-16T11:13:26.398Z,99313.97
2022-11-16T11:16:18.866Z,99307.97
2022-11-16T11:19:21.094Z,99303.16
2022-11-16T11:22:05.141Z,99266.31
2022-11-16T11:24:50.354Z,99286.28
2022-11-16T11:27:36.085Z,99299.44
2022-11-16T11:30:21.382Z,99288.88
2022-11-16T11:33:12.556Z,99291.41
2022-11-16T11:36:03.941Z,99290.66
2022-11-16T11:38:58.798Z,99273.09
2022-11-16T11:41:46.430Z,99267.78
2022-11-16T11:44:37.156Z,99275.78
2022-11-16T11:47:56.675Z,99264.03
2022-11-16T11:50:44.459Z,99237.63
2022-11-16T11:53:42.831Z,99247.09
2022-11-16T11:56:28.882Z,99270.72
2022-11-16T11:59:20.194Z,99234.19
2022-11-16T12:02:21.062Z,99262.69
2022-11-16T12:05:29.539Z,99256.09
2022-11-16T12:08:26.497Z,99231.69
2022-11-16T12:11:21.477Z,99249.53
2022-11-16T12:14:18.091Z,99249.44
2022-11-16T12:17:10.890Z,99237.47
2022-11-16T12:20:23.101Z,99244.50
2022-11-16T12:23:36.940Z,99230.03
2022-11-16T12:26:29.515Z,99233.56
2022-11-16T12:29:25.078Z,99233.41
2022-11-16T12:32:31.965Z,99221.06
2022-11-16T12:35:37.759Z,99222.06
2022-11-16T12:38:51.055Z,99224.41
2022-11-16T12:41:59.334Z,99222.44
2022-11-16T12:45:03.315Z,99209.53
2022-11-16T12:48:09.933Z,99225.09
2022-11-16T12:51:00.919Z,99206.44
2022-11-16T12:54:00.907Z,99220.47
2022-11-16T12:56:50.737Z,99218.22
2022-11-16T12:59:51.181Z,99214.84
2022-11-16T13:02:56.719Z,99206.72
2022-11-16T13:05:53.737Z,99208.94
2022-11-16T13:08:48.880Z,99182.31
2022-11-16T13:11:37.717Z,99210.38
2022-11-16T13:14:26.353Z,99204.50
2022-11-16T13:17:18.615Z,99201.38
2022-11-16T13:20:27.563Z,99162.69
2022-11-16T13:23:19.938Z,99195.00
2022-11-16T13:26:10.435Z,99199.44
2022-11-16T13:29:01.311Z,99188.66
2022-11-16T13:31:54.037Z,99197.75
2022-11-16T13:34:40.528Z,99196.25
2022-11-16T13:37:46.515Z,99204.78
2022-11-16T13:40:33.124Z,99200.16
2022-11-16T13:43:20.799Z,99183.78
2022-11-16T13:46:04.597Z,99188.25
2022-11-16T13:48:48.887Z,99197.50
2022-11-16T13:51:33.342Z,99172.00
2022-11-16T13:54:44.404Z,99197.22
2022-11-16T13:57:26.312Z,99205.66
2022-11-16T14:00:12.704Z,99201.56
2022-11-16T14:03:27.824Z,99205.66
2022-11-16T14:06:50.918Z,99206.22
2022-11-16T14:09:46.443Z,99202.28
2022-11-16T14:12:55.520Z,99199.78
2022-11-16T14:15:39.856Z,99198.78
2022-11-16T14:18:38.168Z,99209.50
2022-11-16T14:21:39.117Z,99168.97
2022-11-16T14:24:33.695Z,99198.22
2022-11-16T14:27:30.445Z,99194.03
2022-11-16T14:30:21.925Z,99190.03
2022-11-16T14:33:06.217Z,99204.72
2022-11-16T14:35:53.864Z,99211.16
2022-11-16T14:38:40.027Z,99164.75
2022-11-16T14:41:25.814Z,99089.63
2022-11-16T14:44:11.357Z,99204.38
2022-11-16T14:46:57.626Z,99211.38
2022-11-16T14:49:43.376Z,99198.06
2022-11-16T14:52:35.461Z,99200.22
2022-11-16T14:55:21.610Z,99200.59
2022-11-16T14:58:10.013Z,99197.22
2022-11-16T15:00:55.039Z,99202.28
2022-11-16T15:03:46.859Z,99172.06
2022-11-16T15:06:36.673Z,99204.88
2022-11-16T15:09:23.830Z,99213.19
2022-11-16T15:12:32.665Z,99216.81
2022-11-16T15:15:19.903Z,99212.94
2022-11-16T15:18:09.466Z,99188.47
2022-11-16T15:20:54.801Z,99212.84
2022-11-16T15:24:02.011Z,99228.03
2022-11-16T15:26:52.738Z,99194.59
2022-11-16T15:29:36.877Z,99229.94
2022-11-16T15:32:20.624Z,99227.13
2022-11-16T15:35:05.625Z,99217.19
2022-11-16T15:38:01.772Z,99226.97
2022-11-16T15:40:50.439Z,99233.56
2022-11-16T15:43:45.199Z,99237.38
2022-11-16T15:46:39.236Z,99234.72
2022-11-16T15:49:29.994Z,99241.44
2022-11-16T15:52:13.797Z,99233.88
2022-11-16T15:55:05.919Z,99192.38
2022-11-16T15:57:59.917Z,99236.69
2022-11-16T16:00:48.393Z,99240.53
2022-11-16T16:03:34.872Z,99247.00
2022-11-16T16:06:46.440Z,99249.97
2022-11-16T16:09:32.990Z,99213.81
2022-11-16T16:12:20.085Z,99237.91
2022-11-16T16:15:22.878Z,99237.84
2022-11-16T16:18:35.232Z,99213.13
2022-11-16T16:21:19.322Z,99243.72
2022-11-16T16:24:03.885Z,99241.09
2022-11-16T16:26:47.718Z,99247.31
2022-11-16T16:29:32.944Z,99238.66
2022-11-16T16:32:25.411Z,99231.16
2022-11-16T16:35:17.564Z,99214.28
2022-11-16T16:38:02.297Z,99238.84
2022-11-16T16:40:46.375Z,99187.81
2022-11-16T16:43:30.511Z,99235.88
2022-11-16T16:46:16.040Z,99206.72
2022-11-16T16:49:00.117Z,99219.28
2022-11-16T16:51:44.179Z,99228.34
2022-11-16T16:54:28.668Z,99237.28
2022-11-16T16:57:17.698Z,99233.88
2022-11-16T17:00:01.943Z,99224.69
2022-11-16T17:02:49.191Z,99227.75
2022-11-16T17:05:34.100Z,99228.91
2022-11-16T17:08:18.303Z,99220.56
2022-11-16T17:11:02.489Z,99102.88
2022-11-16T17:13:46.343Z,99204.47
2022-11-16T17:16:30.631Z,99223.94
2022-11-16T17:19:16.316Z,99187.38
2022-11-16T17:22:02.453Z,99229.47
2022-11-16T17:24:47.323Z,99218.91
2022-11-16T17:27:32.436Z,99155.38
2022-11-16T17:30:17.179Z,99227.34
2022-11-16T17:33:01.320Z,99218.06
2022-11-16T17:35:56.514Z,99227.78
2022-11-16T17:38:41.872Z,99168.69
2022-11-16T17:41:26.147Z,99216.59
2022-11-16T17:44:10.774Z,99197.13
2022-11-16T17:46:56.033Z,99206.84
2022-11-16T17:49:40.255Z,99191.63
2022-11-16T17:52:25.718Z,99208.75
2022-11-16T17:55:12.159Z,99205.47
2022-11-16T17:57:56.730Z,99202.81
2022-11-16T18:00:41.202Z,99210.22
2022-11-16T18:03:25.704Z,99213.63
2022-11-16T18:06:13.368Z,99180.59
2022-11-16T18:08:58.705Z,99208.28
2022-11-16T18:11:42.529Z,99193.25
2022-11-16T18:14:27.795Z,99167.56
2022-11-16T18:17:11.730Z,99201.97
2022-11-16T18:19:55.771Z,99196.88
2022-11-16T18:22:39.761Z,99199.34
2022-11-16T18:25:25.385Z,99164.75
2022-11-16T18:28:09.601Z,99202.47
2022-11-16T18:30:53.581Z,99157.56
2022-11-16T18:33:38.635Z,99193.28
2022-11-16T18:36:23.815Z,99182.75
2022-11-16T18:39:08.423Z,99190.56
2022-11-16T18:41:55.339Z,99187.16
2022-11-16T18:44:39.290Z,99173.44
2022-11-16T18:47:23.168Z,99132.22
2022-11-16T18:50:18.045Z,99181.88
2022-11-16T18:53:02.887Z,99192.44
2022-11-16T18:55:57.420Z,99071.94
2022-11-16T18:58:52.296Z,99209.78
2022-11-16T19:01:37.040Z,99202.75
2022-11-16T19:04:21.034Z,99206.38
2022-11-16T19:07:05.052Z,99205.88
2022-11-16T19:09:49.239Z,99157.97
2022-11-16T19:12:33.572Z,99197.06
2022-11-16T19:15:19.272Z,99195.56
2022-11-16T19:18:21.219Z,99194.47
2022-11-16T19:21:07.117Z,99155.09
2022-11-16T19:23:53.123Z,99200.78
2022-11-16T19:26:37.018Z,99127.50
2022-11-16T19:29:20.933Z,99175.38
2022-11-16T19:32:06.721Z,99198.53
2022-11-16T19:34:50.476Z,99193.34
2022-11-16T19:37:34.351Z,99210.19
2022-11-16T19:40:23.709Z,99168.63
2022-11-16T19:43:08.898Z,99203.16
2022-11-16T19:45:52.843Z,99165.94
2022-11-16T19:48:38.905Z,99194.06
2022-11-16T19:51:24.895Z,99195.66
2022-11-16T19:54:09.404Z,99197.66
2022-11-16T19:56:55.264Z,99192.09
2022-11-16T19:59:39.321Z,99181.50
2022-11-16T20:02:23.107Z,99191.00
2022-11-16T20:05:09.511Z,99197.28
2022-11-16T20:07:53.280Z,99193.66
2022-11-16T20:10:36.980Z,99204.53
2022-11-16T20:13:21.865Z,99189.25
2022-11-16T20:16:06.095Z,99181.75
2022-11-16T20:18:51.024Z,99180.59
2022-11-16T20:21:37.821Z,99185.16
2022-11-16T20:24:21.859Z,99187.97
2022-11-16T20:27:05.832Z,99187.50
2022-11-16T20:29:49.571Z,99181.81
2022-11-16T20:32:33.252Z,99176.75
2022-11-16T20:35:19.232Z,99164.50
2022-11-16T20:38:04.480Z,99171.38
2022-11-16T20:40:48.199Z,99160.66
2022-11-16T20:43:32.265Z,99159.63
2022-11-16T20:46:17.635Z,99143.44
2022-11-16T20:49:01.962Z,99159.63
2022-11-16T20:51:47.651Z,99144.97
2022-11-16T20:54:33.586Z,99158.34
2022-11-16T20:57:17.354Z,99153.13
2022-11-16T21:00:01.132Z,99153.41
2022-11-16T21:02:44.941Z,99147.94
2022-11-16T21:05:28.680Z,99157.31
2022-11-16T21:08:13.503Z,99148.84
2022-11-16T21:10:58.695Z,99148.13
2022-11-16T21:13:59.886Z,99113.56
2022-11-16T21:16:46.530Z,99153.03
2022-11-16T21:19:30.484Z,99144.38
2022-11-16T21:22:14.474Z,99149.72
2022-11-16T21:25:01.820Z,99127.22
2022-11-16T21:27:48.449Z,99151.31
2022-11-16T21:30:32.186Z,99133.63
2022-11-16T21:33:15.888Z,99128.88
2022-11-16T21:36:05.133Z,99136.28
2022-11-16T21:38:48.969Z,99129.50
2022-11-16T21:41:32.940Z,99095.88
2022-11-16T21:44:18.073Z,99123.44
2022-11-16T21:47:01.814Z,99125.72
2022-11-16T21:50:08.667Z,99132.91
2022-11-16T21:52:49.320Z,99133.56
2022-11-16T21:55:33.177Z,99078.56
2022-11-16T21:58:16.956Z,99122.53
2022-11-16T22:01:03.289Z,99114.50
2022-11-16T22:03:47.001Z,99115.16
2022-11-16T22:06:47.981Z,99096.13
2022-11-16T22:09:31.759Z,99117.03
2022-11-16T22:12:15.594Z,99076.03
2022-11-16T22:14:59.602Z,99093.91
2022-11-16T22:17:45.430Z,99070.47
2022-11-16T22:20:29.191Z,99101.25
2022-11-16T22:23:12.862Z,99101.50
2022-11-16T22:26:01.375Z,99093.38
2022-11-16T22:28:45.228Z,99103.13
2022-11-16T22:31:28.991Z,99102.88
2022-11-16T22:34:14.125Z,99101.25
2022-11-16T22:36:57.891Z,99101.53
2022-11-16T22:39:41.872Z,98983.16
2022-11-16T22:42:25.839Z,99100.72
2022-11-16T22:45:10.548Z,99098.72
2022-11-16T22:47:55.107Z,99096.94
2022-11-16T22:50:40.516Z,99090.84
2022-11-16T22:53:24.422Z,99054.00
2022-11-16T22:56:10.182Z,99091.91
2022-11-16T22:58:54.815Z,99088.31
2022-11-16T23:01:39.448Z,99084.91
2022-11-16T23:04:23.381Z,99080.28
2022-11-16T23:07:09.167Z,99032.94
2022-11-16T23:09:53.262Z,99070.34
2022-11-16T23:12:54.519Z,99021.56
2022-11-16T23:15:50.801Z,98991.50
2022-11-16T23:18:34.770Z,99058.97
2022-11-16T23:21:35.769Z,99053.25
2022-11-16T23:24:38.305Z,99045.66
2022-11-16T23:27:31.509Z,99054.63
2022-11-16T23:30:15.659Z,99024.72
2022-11-16T23:33:00.144Z,99030.09
2022-11-16T23:35:44.150Z,99018.81
2022-11-16T23:38:28.070Z,99051.53
2022-11-16T23:41:30.684Z,99054.44
2022-11-16T23:44:14.693Z,99048.19
2022-11-16T23:46:58.697Z,99047.94
2022-11-16T23:49:42.612Z,99046.47
2022-11-16T23:52:26.560Z,99008.56
2022-11-16T23:55:10.931Z,99043.13
2022-11-16T23:57:57.579Z,98999.00
